createdAt,value
2022-11-05T00:00:49.198Z,3.50
2022-11-05T00:01:49.282Z,3.90
2022-11-05T00:02:49.177Z,3.90
2022-11-05T00:03:49.252Z,4.20
2022-11-05T00:04:49.159Z,3.60
2022-11-05T00:05:49.152Z,3.60
2022-11-05T00:06:49.149Z,3.80
2022-11-05T00:07:49.132Z,3.70
2022-11-05T00:08:49.105Z,3.70
2022-11-05T00:09:49.103Z,3.80
2022-11-05T00:10:49.080Z,4.20
2022-11-05T00:11:49.092Z,3.30
2022-11-05T00:12:49.066Z,3.80
2022-11-05T00:13:49.055Z,3.00
2022-11-05T00:14:49.028Z,3.50
2022-11-05T00:15:49.032Z,3.70
2022-11-05T00:16:49.043Z,4.10
2022-11-05T00:17:49.013Z,3.40
2022-11-05T00:18:48.993Z,3.60
2022-11-05T00:19:48.983Z,3.40
2022-11-05T00:20:48.979Z,3.40
2022-11-05T00:21:48.976Z,3.60
2022-11-05T00:22:48.953Z,3.90
2022-11-05T00:23:48.939Z,3.90
2022-11-05T00:24:48.929Z,4.00
2022-11-05T00:25:48.928Z,3.60
2022-11-05T00:26:48.924Z,4.00
2022-11-05T00:27:48.900Z,4.50
2022-11-05T00:28:48.884Z,4.20
2022-11-05T00:29:48.869Z,4.10
2022-11-05T00:30:48.867Z,4.10
2022-11-05T00:31:48.868Z,4.10
2022-11-05T00:32:48.836Z,4.10
2022-11-05T00:33:48.830Z,4.50
2022-11-05T00:34:48.821Z,4.60
2022-11-05T00:35:48.814Z,4.00
2022-11-05T00:36:48.810Z,3.70
2022-11-05T00:37:50.232Z,4.40
2022-11-05T00:38:48.772Z,4.20
2022-11-05T00:39:48.761Z,4.00
2022-11-05T00:40:48.754Z,3.90
2022-11-05T00:41:48.754Z,4.30
2022-11-05T00:42:48.733Z,3.90
2022-11-05T00:43:48.726Z,3.70
2022-11-05T00:44:48.705Z,3.90
2022-11-05T00:45:48.705Z,4.20
2022-11-05T00:46:48.701Z,4.00
2022-11-05T00:47:48.678Z,3.90
2022-11-05T00:48:48.662Z,3.90
2022-11-05T00:49:48.656Z,4.20
2022-11-05T00:50:48.650Z,4.20
2022-11-05T00:51:48.647Z,3.70
2022-11-05T00:52:48.615Z,4.30
2022-11-05T00:53:48.610Z,3.70
2022-11-05T00:54:48.603Z,3.80
2022-11-05T00:55:48.594Z,3.80
2022-11-05T00:56:48.588Z,4.40
2022-11-05T00:57:48.576Z,3.90
2022-11-05T00:58:48.554Z,3.90
2022-11-05T00:59:48.552Z,4.30
2022-11-05T01:00:48.536Z,3.70
2022-11-05T01:01:48.666Z,4.40
2022-11-05T01:02:48.594Z,3.60
2022-11-05T01:03:51.725Z,4.70
2022-11-05T01:04:48.487Z,4.10
2022-11-05T01:05:48.475Z,4.00
2022-11-05T01:06:48.476Z,4.00
2022-11-05T01:07:48.469Z,3.70
2022-11-05T01:08:48.433Z,4.90
2022-11-05T01:09:48.432Z,4.20
2022-11-05T01:10:48.426Z,4.10
2022-11-05T01:11:48.414Z,3.90
2022-11-05T01:12:48.423Z,3.60
2022-11-05T01:13:48.388Z,4.10
2022-11-05T01:14:48.383Z,3.60
2022-11-05T01:15:48.366Z,3.70
2022-11-05T01:16:48.349Z,3.50
2022-11-05T01:17:48.376Z,4.70
2022-11-05T01:18:48.329Z,3.60
2022-11-05T01:19:48.319Z,4.00
2022-11-05T01:20:48.312Z,4.00
2022-11-05T01:21:48.308Z,4.30
2022-11-05T01:22:48.303Z,4.20
2022-11-05T01:23:48.282Z,4.10
2022-11-05T01:24:48.263Z,4.70
2022-11-05T01:25:48.254Z,4.00
2022-11-05T01:26:48.243Z,3.90
2022-11-05T01:27:48.246Z,3.90
2022-11-05T01:28:48.239Z,4.70
2022-11-05T01:29:48.212Z,4.90
2022-11-05T01:30:48.203Z,4.20
2022-11-05T01:31:48.196Z,4.10
2022-11-05T01:32:48.189Z,3.90
2022-11-05T01:33:48.165Z,4.20
2022-11-05T01:34:48.162Z,4.20
2022-11-05T01:35:48.142Z,4.30
2022-11-05T01:36:48.130Z,3.60
2022-11-05T01:37:48.146Z,4.10
2022-11-05T01:38:48.106Z,4.30
2022-11-05T01:39:48.106Z,4.00
2022-11-05T01:40:48.082Z,4.40
2022-11-05T01:41:48.072Z,3.70
2022-11-05T01:42:48.084Z,4.40
2022-11-05T01:43:48.054Z,4.30
2022-11-05T01:44:48.049Z,4.00
2022-11-05T01:45:48.036Z,3.80
2022-11-05T01:46:48.022Z,4.40
2022-11-05T01:47:48.026Z,4.00
2022-11-05T01:48:47.997Z,3.60
2022-11-05T01:49:47.987Z,5.10
2022-11-05T01:50:47.972Z,4.00
2022-11-05T01:51:47.969Z,4.30
2022-11-05T01:52:47.972Z,4.60
2022-11-05T01:53:47.951Z,4.30
2022-11-05T01:54:47.924Z,4.10
2022-11-05T01:55:47.917Z,4.00
2022-11-05T01:56:47.901Z,4.40
2022-11-05T01:57:47.925Z,4.70
2022-11-05T01:58:47.895Z,4.00
2022-11-05T01:59:47.882Z,4.10
2022-11-05T02:00:47.862Z,4.50
2022-11-05T02:01:47.918Z,4.60
2022-11-05T02:02:47.934Z,4.20
2022-11-05T02:03:47.834Z,4.20
2022-11-05T02:04:47.822Z,4.10
2022-11-05T02:05:47.812Z,4.10
2022-11-05T02:06:47.794Z,3.80
2022-11-05T02:07:47.816Z,4.70
2022-11-05T02:08:47.777Z,4.20
2022-11-05T02:09:47.765Z,5.20
2022-11-05T02:10:47.754Z,4.50
2022-11-05T02:11:47.744Z,4.00
2022-11-05T02:12:47.747Z,4.90
2022-11-05T02:13:47.732Z,4.00
2022-11-05T02:14:47.703Z,3.90
2022-11-05T02:15:47.700Z,4.30
2022-11-05T02:16:47.700Z,4.30
2022-11-05T02:17:47.697Z,4.10
2022-11-05T02:18:47.664Z,4.50
2022-11-05T02:19:47.657Z,4.70
2022-11-05T02:20:52.037Z,4.60
2022-11-05T02:21:47.634Z,4.80
2022-11-05T02:22:47.638Z,4.50
2022-11-05T02:23:47.616Z,4.50
2022-11-05T02:24:47.602Z,4.80
2022-11-05T02:25:47.597Z,4.30
2022-11-05T02:26:47.577Z,4.80
2022-11-05T02:27:47.585Z,4.60
2022-11-05T02:28:47.550Z,5.40
2022-11-05T02:29:47.551Z,5.20
2022-11-05T02:30:47.557Z,5.40
2022-11-05T02:31:47.650Z,4.90
2022-11-05T02:32:47.527Z,5.00
2022-11-05T02:33:47.497Z,4.80
2022-11-05T02:34:47.490Z,4.70
2022-11-05T02:35:47.496Z,5.00
2022-11-05T02:36:47.471Z,4.80
2022-11-05T02:37:47.464Z,5.00
2022-11-05T02:38:47.440Z,5.60
2022-11-05T02:39:47.436Z,5.10
2022-11-05T02:40:47.430Z,5.50
2022-11-05T02:41:47.417Z,5.60
2022-11-05T02:42:47.412Z,4.90
2022-11-05T02:43:47.407Z,4.90
2022-11-05T02:44:47.375Z,5.40
2022-11-05T02:45:47.363Z,5.30
2022-11-05T02:46:47.355Z,4.90
2022-11-05T02:47:47.356Z,5.20
2022-11-05T02:48:47.332Z,5.50
2022-11-05T02:49:47.329Z,5.40
2022-11-05T02:50:47.310Z,5.60
2022-11-05T02:51:47.305Z,5.20
2022-11-05T02:52:47.305Z,5.50
2022-11-05T02:53:47.274Z,5.60
2022-11-05T02:54:47.273Z,5.30
2022-11-05T02:55:47.254Z,6.20
2022-11-05T02:56:47.238Z,5.70
2022-11-05T02:57:47.255Z,5.40
2022-11-05T02:58:47.229Z,5.90
2022-11-05T02:59:47.216Z,5.70
2022-11-05T03:00:47.211Z,5.40
2022-11-05T03:01:47.462Z,5.70
2022-11-05T03:02:47.378Z,5.70
2022-11-05T03:03:47.165Z,5.60
2022-11-05T03:04:47.161Z,5.50
2022-11-05T03:05:47.141Z,5.30
2022-11-05T03:06:47.134Z,5.90
2022-11-05T03:07:47.139Z,5.50
2022-11-05T03:08:47.111Z,5.30
2022-11-05T03:09:47.111Z,5.50
2022-11-05T03:10:47.086Z,5.70
2022-11-05T03:11:47.128Z,6.00
2022-11-05T03:12:47.082Z,6.00
2022-11-05T03:13:47.058Z,5.40
2022-11-05T03:14:47.045Z,5.60
2022-11-05T03:15:47.036Z,5.90
2022-11-05T03:16:47.018Z,5.90
2022-11-05T03:17:47.027Z,5.30
2022-11-05T03:18:46.997Z,5.30
2022-11-05T03:19:46.987Z,5.70
2022-11-05T03:20:46.983Z,6.00
2022-11-05T03:21:47.025Z,5.50
2022-11-05T03:22:46.976Z,5.80
2022-11-05T03:23:46.949Z,6.00
2022-11-05T03:24:46.930Z,6.20
2022-11-05T03:25:46.929Z,5.90
2022-11-05T03:26:47.020Z,5.90
2022-11-05T03:27:46.919Z,6.00
2022-11-05T03:28:46.897Z,6.00
2022-11-05T03:29:46.881Z,6.80
2022-11-05T03:30:46.875Z,5.70
2022-11-05T03:31:46.872Z,5.90
2022-11-05T03:32:46.865Z,5.90
2022-11-05T03:33:46.839Z,5.60
2022-11-05T03:34:46.819Z,6.00
2022-11-05T03:35:46.811Z,6.30
2022-11-05T03:36:46.806Z,6.20
2022-11-05T03:37:46.825Z,6.60
2022-11-05T03:38:46.780Z,6.10
2022-11-05T03:39:46.765Z,6.90
2022-11-05T03:40:46.755Z,6.30
2022-11-05T03:41:46.801Z,6.60
2022-11-05T03:42:46.754Z,6.20
2022-11-05T03:43:46.727Z,5.80
2022-11-05T03:44:46.714Z,5.90
2022-11-05T03:45:46.704Z,6.80
2022-11-05T03:46:46.794Z,5.90
2022-11-05T03:47:46.707Z,5.60
2022-11-05T03:48:46.740Z,5.70
2022-11-05T03:49:46.654Z,6.10
2022-11-05T03:50:46.639Z,6.10
2022-11-05T03:51:46.643Z,6.00
2022-11-05T03:52:46.620Z,5.50
2022-11-05T03:53:46.631Z,6.20
2022-11-05T03:54:46.599Z,6.50
2022-11-05T03:55:46.606Z,6.90
2022-11-05T03:56:46.584Z,5.90
2022-11-05T03:57:46.568Z,6.50
2022-11-05T03:58:46.570Z,5.80
2022-11-05T03:59:46.544Z,6.00
2022-11-05T04:00:46.535Z,6.00
2022-11-05T04:01:46.702Z,6.80
2022-11-05T04:02:46.712Z,5.90
2022-11-05T04:03:46.517Z,5.80
2022-11-05T04:04:46.491Z,6.30
2022-11-05T04:05:46.478Z,6.60
2022-11-05T04:06:46.587Z,5.70
2022-11-05T04:07:46.461Z,5.80
2022-11-05T04:08:46.460Z,6.40
2022-11-05T04:09:46.433Z,5.70
2022-11-05T04:10:46.427Z,6.30
2022-11-05T04:11:46.418Z,5.80
2022-11-05T04:12:46.399Z,6.20
2022-11-05T04:13:46.410Z,6.20
2022-11-05T04:14:46.373Z,6.40
2022-11-05T04:15:46.370Z,6.20
2022-11-05T04:16:46.377Z,5.90
2022-11-05T04:17:46.347Z,5.90
2022-11-05T04:18:46.344Z,6.30
2022-11-05T04:19:46.332Z,5.50
2022-11-05T04:20:46.305Z,5.50
2022-11-05T04:21:46.297Z,5.50
2022-11-05T04:22:46.289Z,5.30
2022-11-05T04:23:46.293Z,5.90
2022-11-05T04:24:46.264Z,5.90
2022-11-05T04:25:46.257Z,5.60
2022-11-05T04:26:46.278Z,5.80
2022-11-05T04:27:46.234Z,5.60
2022-11-05T04:28:46.233Z,5.90
2022-11-05T04:29:46.214Z,5.80
2022-11-05T04:30:46.192Z,6.30
2022-11-05T04:31:46.199Z,5.90
2022-11-05T04:32:46.175Z,6.00
2022-11-05T04:33:46.182Z,6.00
2022-11-05T04:34:46.160Z,5.80
2022-11-05T04:35:46.148Z,5.90
2022-11-05T04:36:46.210Z,6.10
2022-11-05T04:37:46.117Z,5.70
2022-11-05T04:38:46.127Z,6.10
2022-11-05T04:39:46.107Z,6.50
2022-11-05T04:40:46.094Z,6.50
2022-11-05T04:41:46.083Z,6.30
2022-11-05T04:42:46.070Z,5.60
2022-11-05T04:43:46.074Z,6.50
2022-11-05T04:44:46.046Z,6.20
2022-11-05T04:45:46.041Z,6.30
2022-11-05T04:46:46.075Z,6.10
2022-11-05T04:47:46.011Z,6.10
2022-11-05T04:48:46.027Z,6.10
2022-11-05T04:49:45.991Z,6.00
2022-11-05T04:50:45.981Z,5.80
2022-11-05T04:51:45.970Z,6.60
2022-11-05T04:52:45.946Z,6.10
2022-11-05T04:53:45.978Z,6.10
2022-11-05T04:54:45.944Z,6.10
2022-11-05T04:55:45.925Z,6.10
2022-11-05T04:56:45.910Z,6.50
2022-11-05T04:57:45.906Z,6.10
2022-11-05T04:58:45.895Z,6.00
2022-11-05T04:59:45.876Z,5.80
2022-11-05T05:00:45.947Z,6.30
2022-11-05T05:01:45.939Z,6.10
2022-11-05T05:02:45.846Z,6.50
2022-11-05T05:03:45.846Z,6.20
2022-11-05T05:04:45.812Z,5.90
2022-11-05T05:05:45.817Z,6.20
2022-11-05T05:06:45.805Z,6.10
2022-11-05T05:07:45.790Z,6.20
2022-11-05T05:08:45.792Z,6.10
2022-11-05T05:09:45.767Z,5.90
2022-11-05T05:10:45.750Z,6.10
2022-11-05T05:11:45.754Z,5.90
2022-11-05T05:12:45.725Z,6.10
2022-11-05T05:13:45.734Z,6.20
2022-11-05T05:14:45.718Z,6.10
2022-11-05T05:15:45.705Z,5.60
2022-11-05T05:16:45.679Z,5.60
2022-11-05T05:17:45.678Z,6.20
2022-11-05T05:18:46.587Z,5.30
2022-11-05T05:19:45.656Z,6.10
2022-11-05T05:20:45.639Z,6.00
2022-11-05T05:21:45.626Z,5.70
2022-11-05T05:22:45.617Z,5.70
2022-11-05T05:23:45.633Z,5.20
2022-11-05T05:24:51.520Z,6.10
2022-11-05T05:25:45.599Z,5.80
2022-11-05T05:26:45.576Z,6.10
2022-11-05T05:27:45.576Z,5.40
2022-11-05T05:28:45.560Z,6.20
2022-11-05T05:29:45.548Z,6.40
2022-11-05T05:30:45.535Z,6.00
2022-11-05T05:31:45.523Z,5.30
2022-11-05T05:32:45.516Z,5.60
2022-11-05T05:33:45.524Z,5.90
2022-11-05T05:34:45.487Z,5.40
2022-11-05T05:35:45.479Z,5.90
2022-11-05T05:36:45.466Z,6.20
2022-11-05T05:37:45.476Z,5.90
2022-11-05T05:38:45.449Z,5.60
2022-11-05T05:39:45.435Z,6.40
2022-11-05T05:40:45.422Z,6.20
2022-11-05T05:41:45.413Z,5.80
2022-11-05T05:42:45.405Z,6.40
2022-11-05T05:43:45.412Z,5.60
2022-11-05T05:44:45.374Z,5.70
2022-11-05T05:45:45.375Z,5.80
2022-11-05T05:46:45.349Z,5.80
2022-11-05T05:47:45.349Z,5.70
2022-11-05T05:48:45.348Z,5.80
2022-11-05T05:49:45.327Z,6.40
2022-11-05T05:50:45.314Z,6.10
2022-11-05T05:51:45.306Z,5.60
2022-11-05T05:52:45.296Z,6.20
2022-11-05T05:53:45.300Z,6.10
2022-11-05T05:54:45.264Z,5.80
2022-11-05T05:55:45.254Z,5.50
2022-11-05T05:56:45.245Z,5.50
2022-11-05T05:57:45.241Z,5.30
2022-11-05T05:58:45.238Z,5.90
2022-11-05T05:59:45.212Z,5.40
2022-11-05T06:00:45.207Z,5.70
2022-11-05T06:01:45.354Z,5.20
2022-11-05T06:02:45.341Z,4.90
2022-11-05T06:03:45.189Z,5.50
2022-11-05T06:04:45.150Z,5.90
2022-11-05T06:05:45.149Z,5.20
2022-11-05T06:06:45.135Z,5.50
2022-11-05T06:07:45.137Z,5.60
2022-11-05T06:08:45.135Z,5.70
2022-11-05T06:09:45.096Z,5.10
2022-11-05T06:10:45.194Z,5.50
2022-11-05T06:11:45.077Z,5.50
2022-11-05T06:12:45.066Z,5.40
2022-11-05T06:13:45.072Z,5.50
2022-11-05T06:14:45.041Z,5.70
2022-11-05T06:15:45.041Z,5.30
2022-11-05T06:16:45.020Z,5.60
2022-11-05T06:17:45.012Z,6.30
2022-11-05T06:18:45.020Z,5.60
2022-11-05T06:19:45.004Z,5.60
2022-11-05T06:20:44.981Z,5.30
2022-11-05T06:21:44.981Z,5.60
2022-11-05T06:22:44.954Z,5.30
2022-11-05T06:23:44.969Z,5.20
2022-11-05T06:24:44.935Z,5.80
2022-11-05T06:25:44.921Z,5.20
2022-11-05T06:26:44.909Z,5.30
2022-11-05T06:27:44.907Z,5.60
2022-11-05T06:28:44.903Z,5.60
2022-11-05T06:29:44.895Z,5.40
2022-11-05T06:30:44.865Z,5.40
2022-11-05T06:31:44.858Z,5.00
2022-11-05T06:32:44.853Z,5.10
2022-11-05T06:33:44.848Z,4.80
2022-11-05T06:34:44.820Z,5.60
2022-11-05T06:35:44.824Z,6.00
2022-11-05T06:36:44.795Z,5.10
2022-11-05T06:37:44.787Z,5.40
2022-11-05T06:38:44.805Z,5.10
2022-11-05T06:39:44.774Z,5.20
2022-11-05T06:40:44.769Z,5.30
2022-11-05T06:42:12.089Z,5.40
2022-11-05T06:42:44.742Z,5.40
2022-11-05T06:43:44.746Z,5.50
2022-11-05T06:44:44.705Z,5.00
2022-11-05T06:45:44.697Z,6.10
2022-11-05T06:46:48.451Z,4.80
2022-11-05T06:47:44.679Z,5.70
2022-11-05T06:48:44.688Z,5.40
2022-11-05T06:49:44.654Z,5.20
2022-11-05T06:50:44.785Z,5.70
2022-11-05T06:51:44.631Z,5.70
2022-11-05T06:52:44.618Z,5.70
2022-11-05T06:53:44.618Z,5.60
2022-11-05T06:54:44.616Z,5.60
2022-11-05T06:55:44.591Z,5.70
2022-11-05T06:56:44.569Z,5.70
2022-11-05T06:57:44.570Z,5.60
2022-11-05T06:58:44.551Z,5.60
2022-11-05T06:59:44.564Z,5.40
2022-11-05T07:00:44.551Z,5.80
2022-11-05T07:01:44.691Z,5.90
2022-11-05T07:02:44.510Z,5.40
2022-11-05T07:03:44.505Z,5.50
2022-11-05T07:04:44.505Z,6.20
2022-11-05T07:05:44.476Z,6.20
2022-11-05T07:06:44.465Z,5.80
2022-11-05T07:07:44.464Z,5.40
2022-11-05T07:08:44.442Z,5.20
2022-11-05T07:09:44.457Z,5.70
2022-11-05T07:10:44.419Z,5.10
2022-11-05T07:11:44.418Z,5.30
2022-11-05T07:12:44.402Z,5.40
2022-11-05T07:13:44.386Z,5.40
2022-11-05T07:14:44.395Z,5.80
2022-11-05T07:15:44.369Z,4.90
2022-11-05T07:16:44.352Z,5.80
2022-11-05T07:17:44.344Z,5.20
2022-11-05T07:18:44.335Z,5.20
2022-11-05T07:19:44.339Z,4.80
2022-11-05T07:20:44.313Z,5.30
2022-11-05T07:21:44.305Z,5.70
2022-11-05T07:22:44.291Z,5.50
2022-11-05T07:23:44.284Z,5.20
2022-11-05T07:24:44.291Z,5.50
2022-11-05T07:25:44.249Z,5.00
2022-11-05T07:26:44.245Z,5.70
2022-11-05T07:27:44.236Z,5.30
2022-11-05T07:28:44.221Z,5.60
2022-11-05T07:29:44.226Z,4.70
2022-11-05T07:30:44.202Z,5.00
2022-11-05T07:31:44.195Z,6.20
2022-11-05T07:32:44.177Z,5.40
2022-11-05T07:33:44.178Z,5.40
2022-11-05T07:34:44.172Z,5.20
2022-11-05T07:35:44.147Z,5.50
2022-11-05T07:36:44.137Z,5.20
2022-11-05T07:37:44.128Z,5.70
2022-11-05T07:38:44.108Z,5.80
2022-11-05T07:39:44.116Z,5.70
2022-11-05T07:40:44.094Z,5.70
2022-11-05T07:41:44.079Z,6.50
2022-11-05T07:42:44.077Z,5.10
2022-11-05T07:43:44.060Z,5.50
2022-11-05T07:44:44.062Z,5.40
2022-11-05T07:45:44.037Z,4.80
2022-11-05T07:46:44.019Z,5.70
2022-11-05T07:47:44.011Z,5.10
2022-11-05T07:48:44.006Z,5.70
2022-11-05T07:49:44.009Z,5.40
2022-11-05T07:50:43.982Z,5.60
2022-11-05T07:51:43.976Z,5.50
2022-11-05T07:52:43.954Z,5.20
2022-11-05T07:53:45.558Z,5.60
2022-11-05T07:54:43.940Z,5.30
2022-11-05T07:55:43.938Z,5.80
2022-11-05T07:56:43.917Z,5.50
2022-11-05T07:57:43.903Z,5.30
2022-11-05T07:58:43.894Z,5.10
2022-11-05T07:59:43.898Z,4.80
2022-11-05T08:00:44.011Z,5.50
2022-11-05T08:01:44.075Z,4.70
2022-11-05T08:02:44.175Z,4.50
2022-11-05T08:03:43.966Z,5.20
2022-11-05T08:04:43.837Z,5.40
2022-11-05T08:05:43.814Z,4.90
2022-11-05T08:06:43.809Z,5.20
2022-11-05T08:07:43.795Z,4.60
2022-11-05T08:08:43.788Z,4.50
2022-11-05T08:09:43.876Z,4.50
2022-11-05T08:10:43.755Z,4.90
2022-11-05T08:11:43.752Z,5.10
2022-11-05T08:12:43.741Z,4.70
2022-11-05T08:13:43.750Z,5.20
2022-11-05T08:14:44.674Z,5.40
2022-11-05T08:15:44.266Z,4.90
2022-11-05T08:16:43.690Z,4.50
2022-11-05T08:17:44.639Z,4.80
2022-11-05T08:18:43.667Z,4.80
2022-11-05T08:19:43.676Z,4.90
2022-11-05T08:20:43.658Z,4.70
2022-11-05T08:21:43.642Z,4.40
2022-11-05T08:22:43.624Z,5.20
2022-11-05T08:23:43.615Z,4.70
2022-11-05T08:24:43.620Z,4.40
2022-11-05T08:25:43.591Z,4.70
2022-11-05T08:26:43.575Z,4.80
2022-11-05T08:27:43.572Z,5.20
2022-11-05T08:28:43.564Z,4.90
2022-11-05T08:29:43.562Z,4.30
2022-11-05T08:30:43.533Z,4.60
2022-11-05T08:31:43.531Z,5.30
2022-11-05T08:32:43.516Z,4.90
2022-11-05T08:33:43.503Z,5.00
2022-11-05T08:34:43.506Z,4.50
2022-11-05T08:35:43.484Z,4.90
2022-11-05T08:36:43.508Z,5.10
2022-11-05T08:37:43.460Z,4.80
2022-11-05T08:38:43.449Z,5.40
2022-11-05T08:39:43.457Z,5.20
2022-11-05T08:40:43.425Z,4.80
2022-11-05T08:41:43.425Z,4.40
2022-11-05T08:42:43.404Z,4.40
2022-11-05T08:43:43.396Z,4.20
2022-11-05T08:44:43.392Z,4.40
2022-11-05T08:45:43.373Z,4.60
2022-11-05T08:46:43.353Z,4.40
2022-11-05T08:47:43.385Z,4.20
2022-11-05T08:48:43.341Z,4.50
2022-11-05T08:49:43.351Z,4.40
2022-11-05T08:50:43.315Z,4.10
2022-11-05T08:51:43.309Z,4.90
2022-11-05T08:52:43.290Z,4.40
2022-11-05T08:53:43.291Z,4.10
2022-11-05T08:54:43.294Z,4.10
2022-11-05T08:55:43.257Z,4.70
2022-11-05T08:56:43.249Z,4.30
2022-11-05T08:57:43.233Z,4.70
2022-11-05T08:58:43.224Z,4.30
2022-11-05T08:59:43.242Z,4.40
2022-11-05T09:00:43.300Z,4.80
2022-11-05T09:01:43.328Z,3.80
2022-11-05T09:02:43.255Z,3.80
2022-11-05T09:03:43.171Z,4.10
2022-11-05T09:04:43.176Z,4.10
2022-11-05T09:05:43.160Z,4.20
2022-11-05T09:06:43.138Z,4.10
2022-11-05T09:07:43.141Z,4.30
2022-11-05T09:08:43.110Z,4.30
2022-11-05T09:09:43.129Z,4.00
2022-11-05T09:10:43.083Z,4.20
2022-11-05T09:12:10.430Z,3.90
2022-11-05T09:12:43.078Z,4.20
2022-11-05T09:13:43.061Z,4.10
2022-11-05T09:14:43.076Z,3.60
2022-11-05T09:15:43.040Z,3.90
2022-11-05T09:16:43.026Z,4.00
2022-11-05T09:17:43.035Z,4.30
2022-11-05T09:18:43.014Z,4.40
2022-11-05T09:19:43.011Z,4.80
2022-11-05T09:20:42.981Z,4.10
2022-11-05T09:21:42.974Z,4.00
2022-11-05T09:22:43.581Z,4.00
2022-11-05T09:23:42.960Z,3.50
2022-11-05T09:24:42.954Z,4.10
2022-11-05T09:25:42.930Z,3.60
2022-11-05T09:26:42.913Z,3.90
2022-11-05T09:27:42.902Z,3.90
2022-11-05T09:28:42.889Z,4.40
2022-11-05T09:29:42.908Z,4.30
2022-11-05T09:30:42.881Z,4.10
2022-11-05T09:31:42.883Z,3.70
2022-11-05T09:32:42.843Z,4.10
2022-11-05T09:33:42.831Z,3.80
2022-11-05T09:34:42.843Z,4.70
2022-11-05T09:35:42.832Z,3.50
2022-11-05T09:36:42.798Z,3.70
2022-11-05T09:37:42.795Z,3.60
2022-11-05T09:38:42.780Z,4.20
2022-11-05T09:39:42.792Z,4.30
2022-11-05T09:40:42.773Z,4.00
2022-11-05T09:41:42.752Z,3.80
2022-11-05T09:42:42.763Z,4.00
2022-11-05T09:43:42.731Z,4.10
2022-11-05T09:44:42.711Z,3.90
2022-11-05T09:45:42.710Z,3.90
2022-11-05T09:46:42.707Z,3.80
2022-11-05T09:47:42.690Z,3.80
2022-11-05T09:48:42.674Z,3.80
2022-11-05T09:49:42.665Z,4.10
2022-11-05T09:50:42.657Z,3.50
2022-11-05T09:51:42.658Z,4.60
2022-11-05T09:52:42.635Z,4.00
2022-11-05T09:53:42.618Z,3.60
2022-11-05T09:54:42.604Z,4.10
2022-11-05T09:55:42.591Z,4.40
2022-11-05T09:56:42.600Z,4.10
2022-11-05T09:57:42.567Z,4.10
2022-11-05T09:58:42.558Z,3.80
2022-11-05T09:59:42.557Z,3.70
2022-11-05T10:00:42.586Z,4.50
2022-11-05T10:01:42.678Z,4.00
2022-11-05T10:02:42.597Z,3.60
2022-11-05T10:03:42.503Z,3.80
2022-11-05T10:04:42.488Z,3.50
2022-11-05T10:05:42.556Z,3.20
2022-11-05T10:06:42.474Z,3.20
2022-11-05T10:07:42.465Z,3.60
2022-11-05T10:08:42.441Z,3.70
2022-11-05T10:09:42.439Z,3.60
2022-11-05T10:10:42.424Z,3.90
2022-11-05T10:11:42.432Z,3.40
2022-11-05T10:12:42.405Z,3.30
2022-11-05T10:13:42.399Z,3.90
2022-11-05T10:14:42.383Z,3.60
2022-11-05T10:15:42.371Z,3.30
2022-11-05T10:16:42.361Z,3.50
2022-11-05T10:17:42.367Z,3.80
2022-11-05T10:18:42.340Z,3.50
2022-11-05T10:19:42.332Z,3.30
2022-11-05T10:20:42.312Z,3.60
2022-11-05T10:22:05.692Z,4.10
2022-11-05T10:22:48.156Z,3.60
2022-11-05T10:23:42.298Z,3.10
2022-11-05T10:24:42.271Z,3.50
2022-11-05T10:25:42.259Z,3.80
2022-11-05T10:26:42.251Z,4.20
2022-11-05T10:27:42.271Z,3.30
2022-11-05T10:28:42.221Z,3.30
2022-11-05T10:29:42.217Z,3.20
2022-11-05T10:30:42.200Z,3.00
2022-11-05T10:31:42.193Z,3.20
2022-11-05T10:32:42.194Z,3.50
2022-11-05T10:33:42.175Z,3.40
2022-11-05T10:34:42.159Z,2.80
2022-11-05T10:35:42.147Z,3.30
2022-11-05T10:36:42.128Z,3.20
2022-11-05T10:37:42.138Z,3.50
2022-11-05T10:38:42.198Z,3.20
2022-11-05T10:39:42.105Z,2.70
2022-11-05T10:40:42.091Z,3.00
2022-11-05T10:41:42.081Z,3.10
2022-11-05T10:42:42.068Z,2.90
2022-11-05T10:43:42.063Z,3.20
2022-11-05T10:44:42.068Z,2.60
2022-11-05T10:45:42.044Z,2.90
2022-11-05T10:46:42.022Z,2.50
2022-11-05T10:47:42.026Z,2.80
2022-11-05T10:48:43.893Z,3.10
2022-11-05T10:49:42.012Z,2.90
2022-11-05T10:50:41.999Z,2.80
2022-11-05T10:51:56.992Z,2.90
2022-11-05T10:52:41.962Z,2.90
2022-11-05T10:53:41.947Z,2.80
2022-11-05T10:54:41.937Z,2.60
2022-11-05T10:55:41.968Z,3.10
2022-11-05T10:56:41.914Z,2.30
2022-11-05T10:57:41.908Z,2.50
2022-11-05T10:58:41.891Z,2.20
2022-11-05T10:59:41.887Z,2.70
2022-11-05T11:00:41.908Z,2.60
2022-11-05T11:01:42.065Z,2.60
2022-11-05T11:02:41.847Z,2.90
2022-11-05T11:03:41.842Z,2.50
2022-11-05T11:04:41.830Z,2.70
2022-11-05T11:05:41.813Z,2.10
2022-11-05T11:06:41.819Z,2.80
2022-11-05T11:07:41.798Z,3.00
2022-11-05T11:08:41.781Z,2.40
2022-11-05T11:09:41.771Z,2.90
2022-11-05T11:10:41.758Z,2.40
2022-11-05T11:11:41.762Z,2.50
2022-11-05T11:12:41.739Z,2.50
2022-11-05T11:13:41.728Z,2.30
2022-11-05T11:14:41.714Z,2.10
2022-11-05T11:15:41.708Z,2.20
2022-11-05T11:16:41.687Z,2.60
2022-11-05T11:17:41.706Z,2.30
2022-11-05T11:18:41.668Z,2.40
2022-11-05T11:19:41.652Z,2.70
2022-11-05T11:20:41.649Z,2.10
2022-11-05T11:21:41.638Z,2.70
2022-11-05T11:22:41.643Z,2.20
2022-11-05T11:23:41.616Z,3.10
2022-11-05T11:24:41.601Z,2.40
2022-11-05T11:25:41.592Z,2.60
2022-11-05T11:26:41.572Z,2.30
2022-11-05T11:27:41.584Z,1.90
2022-11-05T11:28:41.555Z,2.20
2022-11-05T11:29:45.142Z,1.90
2022-11-05T11:30:41.543Z,2.10
2022-11-05T11:31:41.521Z,2.10
2022-11-05T11:32:41.524Z,2.00
2022-11-05T11:33:41.499Z,1.90
2022-11-05T11:34:41.491Z,2.10
2022-11-05T11:35:41.485Z,1.90
2022-11-05T11:36:41.469Z,2.30
2022-11-05T11:37:41.475Z,1.90
2022-11-05T11:38:41.443Z,2.30
2022-11-05T11:39:41.442Z,2.20
2022-11-05T11:40:41.416Z,2.30
2022-11-05T11:41:41.408Z,2.20
2022-11-05T11:42:41.420Z,2.20
2022-11-05T11:43:41.388Z,2.50
2022-11-05T11:44:41.389Z,2.20
2022-11-05T11:45:41.366Z,2.30
2022-11-05T11:46:41.357Z,2.00
2022-11-05T11:47:41.369Z,2.10
2022-11-05T11:48:41.338Z,2.40
2022-11-05T11:49:41.313Z,2.00
2022-11-05T11:50:41.311Z,1.90
2022-11-05T11:51:41.303Z,2.00
2022-11-05T11:52:41.285Z,2.00
2022-11-05T11:53:41.296Z,2.10
2022-11-05T11:54:41.301Z,1.90
2022-11-05T11:55:41.257Z,2.00
2022-11-05T11:56:41.239Z,2.30
2022-11-05T11:57:41.231Z,2.40
2022-11-05T11:58:41.245Z,2.30
2022-11-05T12:00:07.056Z,2.30
2022-11-05T12:00:41.200Z,2.10
2022-11-05T12:01:41.223Z,2.70
2022-11-05T12:02:41.266Z,2.60
2022-11-05T12:03:41.167Z,1.90
2022-11-05T12:04:41.173Z,2.20
2022-11-05T12:05:41.134Z,2.80
2022-11-05T12:06:41.126Z,2.00
2022-11-05T12:07:41.111Z,2.20
2022-11-05T12:08:45.395Z,2.20
2022-11-05T12:09:41.093Z,2.30
2022-11-05T12:10:41.100Z,2.10
2022-11-05T12:11:41.078Z,2.20
2022-11-05T12:12:41.057Z,2.50
2022-11-05T12:13:41.050Z,2.30
2022-11-05T12:14:46.079Z,2.40
2022-11-05T12:15:41.051Z,2.20
2022-11-05T12:16:41.007Z,2.20
2022-11-05T12:17:41.009Z,2.60
2022-11-05T12:18:40.991Z,2.20
2022-11-05T12:19:40.981Z,1.90
2022-11-05T12:20:41.001Z,2.10
2022-11-05T12:21:52.569Z,2.30
2022-11-05T12:22:40.967Z,2.30
2022-11-05T12:23:40.935Z,2.00
2022-11-05T12:24:40.927Z,2.50
2022-11-05T12:25:40.933Z,2.30
2022-11-05T12:26:40.906Z,2.90
2022-11-05T12:27:40.889Z,2.90
2022-11-05T12:29:04.793Z,2.20
2022-11-05T12:29:40.871Z,2.00
2022-11-05T12:30:40.850Z,2.50
2022-11-05T12:31:40.849Z,2.30
2022-11-05T12:32:40.888Z,2.40
2022-11-05T12:33:40.824Z,1.90
2022-11-05T12:34:41.016Z,2.50
2022-11-05T12:35:46.742Z,2.50
2022-11-05T12:36:40.795Z,2.20
2022-11-05T12:37:41.788Z,2.30
2022-11-05T12:38:40.775Z,2.00
2022-11-05T12:39:40.759Z,1.90
2022-11-05T12:40:40.749Z,2.10
2022-11-05T12:41:40.741Z,2.20
2022-11-05T12:42:42.400Z,2.20
2022-11-05T12:43:40.763Z,2.00
2022-11-05T12:44:40.691Z,1.90
2022-11-05T12:45:40.695Z,2.00
2022-11-05T12:46:40.672Z,2.00
2022-11-05T12:47:40.660Z,2.10
2022-11-05T12:48:41.477Z,2.30
2022-11-05T12:49:40.653Z,2.30
2022-11-05T12:50:40.625Z,2.00
2022-11-05T12:51:40.622Z,2.50
2022-11-05T12:52:40.603Z,2.60
2022-11-05T12:53:40.600Z,2.10
2022-11-05T12:54:40.734Z,2.30
2022-11-05T12:55:45.495Z,2.60
2022-11-05T12:56:41.349Z,2.60
2022-11-05T12:57:40.543Z,2.10
2022-11-05T12:58:40.532Z,1.90
2022-11-05T12:59:40.520Z,2.00
2022-11-05T13:00:40.526Z,2.50
2022-11-05T13:01:40.631Z,2.30
2022-11-05T13:02:40.577Z,2.20
2022-11-05T13:03:40.481Z,2.70
2022-11-05T13:04:40.466Z,2.40
2022-11-05T13:05:40.477Z,2.10
2022-11-05T13:06:40.449Z,2.80
2022-11-05T13:07:40.436Z,2.50
2022-11-05T13:08:40.420Z,2.30
2022-11-05T13:09:40.418Z,2.10
2022-11-05T13:10:40.400Z,2.70
2022-11-05T13:11:40.407Z,3.10
2022-11-05T13:12:40.370Z,2.80
2022-11-05T13:13:40.368Z,2.10
2022-11-05T13:14:40.348Z,2.90
2022-11-05T13:15:40.343Z,2.30
2022-11-05T13:16:40.356Z,2.70
2022-11-05T13:17:40.331Z,2.70
2022-11-05T13:18:40.308Z,2.20